Time;durP1;ratioP1;P1;durP2;ratioP2;P2;SDS_P1;SDS_P2;PMS_P1;PMS_P2;Temp;Humidity;BMP_temperature;BMP_pressure;BME280_temperature;BME280_humidity;BME280_pressure;Samples;Min_cycle;Max_cycle;Signal;HPM_P1;HPM_P2
2022/05/01 00:00:29;;;;;;;9.05;4.97;;;;;;;16.11;50.16;100215.19;4373902;32;33866;-85
2022/05/01 00:02:59;;;;;;;5.72;4.30;;;;;;;15.92;50.46;100222.56;4344750;32;34464;-84
2022/05/01 00:05:27;;;;;;;10.32;5.05;;;;;;;15.71;50.81;100218.47;4373688;32;34074;-85
2022/05/01 00:07:55;;;;;;;9.43;4.97;;;;;;;16.10;50.22;100224.13;4362882;32;32942;-85
2022/05/01 00:10:23;;;;;;;10.05;4.93;;;;;;;15.79;50.80;100219.75;4364049;32;32704;-84
2022/05/01 00:12:50;;;;;;;8.05;4.18;;;;;;;15.76;51.02;100224.38;4356367;32;32666;-85
2022/05/01 00:15:18;;;;;;;8.45;4.60;;;;;;;15.86;50.82;100209.59;4346769;32;33935;-85
2022/05/01 00:17:46;;;;;;;7.43;4.93;;;;;;;15.75;50.98;100223.53;4331958;32;31493;-85
2022/05/01 00:20:15;;;;;;;10.98;5.22;;;;;;;15.65;51.76;100216.16;4355755;32;33648;-85
2022/05/01 00:22:42;;;;;;;7.72;4.45;;;;;;;15.76;51.73;100219.06;4361558;32;34336;-85
2022/05/01 00:25:10;;;;;;;11.00;4.65;;;;;;;15.82;51.83;100208.06;4361270;32;33499;-85
2022/05/01 00:27:38;;;;;;;8.73;5.50;;;;;;;15.82;51.67;100205.41;4334877;33;32316;-85
2022/05/01 00:30:06;;;;;;;8.65;4.62;;;;;;;15.86;51.64;100214.94;4364737;32;33132;-85
2022/05/01 00:36:25;;;;;;;9.73;5.20;;;;;;;15.87;51.73;100211.31;4354197;32;34505;-85
2022/05/01 00:38:09;;;;;;;7.82;4.68;;;;;;;15.94;51.99;100215.31;4364723;32;33515;-84
2022/05/01 00:40:36;;;;;;;7.75;4.57;;;;;;;16.02;51.80;100218.38;4358423;32;33170;-85
2022/05/01 00:43:05;;;;;;;6.43;4.43;;;;;;;16.12;51.41;100214.22;4363087;32;34156;-85
2022/05/01 00:45:33;;;;;;;8.02;3.90;;;;;;;16.13;51.24;100215.06;4340471;32;33414;-84
2022/05/01 00:48:01;;;;;;;6.65;4.62;;;;;;;16.15;50.34;100210.53;4343063;32;33541;-85
2022/05/01 00:50:30;;;;;;;8.55;4.82;;;;;;;16.09;50.84;100211.75;4359533;32;34290;-84
2022/05/01 00:53:00;;;;;;;17.08;5.87;;;;;;;15.72;52.35;100217.53;4368115;32;33970;-85
2022/05/01 00:55:28;;;;;;;6.30;4.10;;;;;;;15.95;51.88;100214.38;4352543;32;33316;-85
2022/05/01 00:57:55;;;;;;;10.95;4.87;;;;;;;15.82;52.49;100214.25;4356460;32;32011;-85
2022/05/01 01:00:24;;;;;;;9.32;5.60;;;;;;;15.83;51.79;100215.09;4340470;32;32667;-85
2022/05/01 01:02:53;;;;;;;9.07;5.10;;;;;;;15.73;52.28;100214.78;4355323;32;32945;-85
2022/05/01 01:05:22;;;;;;;10.43;5.37;;;;;;;15.76;52.38;100221.72;4367025;32;34559;-85
2022/05/01 01:07:52;;;;;;;10.32;5.75;;;;;;;15.81;52.28;100225.00;4371159;32;33543;-85
2022/05/01 01:10:20;;;;;;;8.43;4.43;;;;;;;15.89;52.20;100214.72;4341702;32;32879;-85
2022/05/01 01:15:31;;;;;;;6.20;4.37;;;;;;;16.00;51.23;100217.63;4360983;32;33902;-85
2022/05/01 01:17:59;;;;;;;6.10;4.22;;;;;;;16.12;51.33;100219.53;4365846;32;33967;-85
2022/05/01 01:20:29;;;;;;;5.40;4.05;;;;;;;16.23;51.20;100218.88;4366947;32;33843;-85
2022/05/01 01:22:59;;;;;;;7.85;4.30;;;;;;;15.84;52.42;100232.78;4334177;32;33489;-84
2022/05/01 01:25:31;;;;;;;3.58;3.28;;;;;;;15.68;52.98;100210.69;4337482;32;32881;-85
2022/05/01 01:28:05;;;;;;;6.72;4.10;;;;;;;16.07;51.99;100220.78;4341252;32;32277;-85
2022/05/01 01:33:21;;;;;;;6.87;4.32;;;;;;;15.49;53.86;100224.16;4359884;32;34295;-85
2022/05/01 01:35:49;;;;;;;10.40;4.43;;;;;;;15.65;53.58;100221.50;4359385;32;34006;-85
2022/05/01 01:38:18;;;;;;;7.85;4.45;;;;;;;15.66;53.33;100223.19;4353588;32;34386;-85
2022/05/01 01:40:53;;;;;;;5.85;3.70;;;;;;;15.67;53.08;100219.63;4341499;32;32898;-85
2022/05/01 01:43:26;;;;;;;6.47;4.32;;;;;;;15.74;52.85;100220.97;4351698;32;32702;-84
2022/05/01 01:45:55;;;;;;;6.07;4.90;;;;;;;15.64;53.10;100214.47;4353323;32;34427;-85
2022/05/01 01:48:24;;;;;;;4.87;4.10;;;;;;;15.60;53.34;100217.25;4353444;32;31856;-85
2022/05/01 01:51:04;;;;;;;5.95;4.00;;;;;;;15.73;53.04;100211.25;4339129;32;32534;-85
2022/05/01 01:53:34;;;;;;;7.00;4.47;;;;;;;15.89;52.47;100214.72;4351480;32;32935;-85
2022/05/01 01:56:03;;;;;;;6.25;3.70;;;;;;;15.67;53.09;100208.97;4353067;32;33084;-85
2022/05/01 01:58:31;;;;;;;5.80;3.83;;;;;;;15.59;53.24;100218.22;4362498;32;34070;-85
2022/05/01 02:01:00;;;;;;;11.60;4.40;;;;;;;15.73;52.69;100213.94;4352597;32;32806;-85
2022/05/01 02:03:28;;;;;;;5.20;4.37;;;;;;;15.57;53.70;100217.47;4358447;32;34897;-85
2022/05/01 02:05:56;;;;;;;8.63;4.32;;;;;;;15.55;53.47;100211.34;4359769;32;33479;-85
2022/05/01 02:08:26;;;;;;;5.35;3.72;;;;;;;15.62;53.38;100212.72;4340669;32;31942;-85
2022/05/01 02:10:54;;;;;;;7.78;4.37;;;;;;;15.59;53.81;100212.88;4353160;32;33269;-85
2022/05/01 02:13:22;;;;;;;6.10;3.55;;;;;;;15.71;53.39;100210.47;4353283;32;34370;-85
2022/05/01 02:15:50;;;;;;;4.53;3.90;;;;;;;15.67;53.55;100207.16;4365300;32;33885;-84
2022/05/01 02:18:18;;;;;;;9.07;3.83;;;;;;;15.78;52.76;100206.53;4340455;32;32576;-85
2022/05/01 02:23:35;;;;;;;5.70;3.90;;;;;;;15.35;53.80;100198.34;4352393;32;34371;-85
2022/05/01 02:26:03;;;;;;;8.77;3.35;;;;;;;15.26;53.78;100197.06;4350091;32;33922;-85
2022/05/01 02:28:32;;;;;;;3.97;3.50;;;;;;;15.68;47.06;100200.88;4363007;32;33312;-85
2022/05/01 02:31:00;;;;;;;4.80;2.92;;;;;;;15.66;46.50;100202.75;4352536;32;33035;-85
2022/05/01 02:33:28;;;;;;;4.07;3.15;;;;;;;15.47;49.39;100202.94;4356030;32;33896;-85
2022/05/01 02:35:56;;;;;;;5.55;3.05;;;;;;;15.48;49.93;100210.00;4370127;32;33399;-84
2022/05/01 02:38:23;;;;;;;5.93;3.97;;;;;;;15.47;47.61;100208.25;4363072;32;30797;-84
2022/05/01 02:40:51;;;;;;;4.25;3.00;;;;;;;15.41;49.13;100205.97;4349671;32;33564;-85
2022/05/01 02:43:19;;;;;;;5.35;2.92;;;;;;;15.48;49.31;100211.81;4342372;32;34404;-84
2022/05/01 02:45:47;;;;;;;5.05;3.12;;;;;;;15.58;47.38;100200.53;4341590;32;32450;-84
2022/05/01 02:48:15;;;;;;;5.05;2.90;;;;;;;15.66;46.19;100202.75;4357153;32;32381;-85
2022/05/01 02:50:42;;;;;;;10.85;3.30;;;;;;;15.93;45.29;100207.41;4340598;32;32855;-84
2022/05/01 02:53:11;;;;;;;6.68;3.03;;;;;;;15.94;44.48;100207.31;4336721;32;34028;-84
2022/05/01 02:55:39;;;;;;;4.85;3.55;;;;;;;16.10;43.56;100207.28;4362795;32;34283;-85
2022/05/01 02:58:07;;;;;;;8.00;3.00;;;;;;;16.06;45.84;100206.59;4356182;32;32614;-85
2022/05/01 03:00:35;;;;;;;3.40;3.10;;;;;;;15.94;45.07;100211.78;4356913;32;32572;-85
2022/05/01 03:03:03;;;;;;;4.65;3.70;;;;;;;16.18;43.23;100209.47;4362320;32;34922;-85
2022/05/01 03:05:31;;;;;;;4.37;3.47;;;;;;;16.42;43.53;100201.78;4366642;32;33816;-84
2022/05/01 03:08:02;;;;;;;4.32;2.78;;;;;;;16.25;46.39;100194.84;4343538;32;33193;-85
2022/05/01 03:10:29;;;;;;;5.03;3.05;;;;;;;16.34;46.10;100194.28;4336144;32;34081;-84
2022/05/01 03:12:57;;;;;;;4.37;3.10;;;;;;;16.15;45.19;100201.69;4351210;32;33270;-85
2022/05/01 03:15:24;;;;;;;4.12;3.53;;;;;;;16.17;44.38;100197.97;4362523;32;33995;-85
2022/05/01 03:23:28;;;;;;;4.00;2.95;;;;;;;15.97;45.42;100208.97;4357025;32;32638;-84
2022/05/01 03:25:58;;;;;;;5.30;3.10;;;;;;;16.15;44.49;100212.34;4372196;32;33812;-85
2022/05/01 03:28:26;;;;;;;3.87;3.08;;;;;;;16.21;43.56;100211.97;4352534;32;33205;-84
2022/05/01 03:30:56;;;;;;;4.43;3.28;;;;;;;16.12;42.55;100208.88;4344226;32;34642;-85
2022/05/01 03:33:26;;;;;;;7.50;3.35;;;;;;;16.00;44.05;100212.31;4351106;32;32965;-84
2022/05/01 03:35:57;;;;;;;4.32;3.15;;;;;;;16.12;42.80;100214.22;4367249;32;33400;-84
2022/05/01 03:38:24;;;;;;;3.62;3.28;;;;;;;16.16;43.05;100214.91;4362303;32;32049;-84
2022/05/01 03:40:53;;;;;;;4.55;3.83;;;;;;;16.10;44.40;100218.78;4348265;32;32578;-84
2022/05/01 03:43:24;;;;;;;3.35;3.05;;;;;;;16.01;42.98;100218.50;4355787;32;34252;-84
2022/05/01 03:45:51;;;;;;;4.30;3.17;;;;;;;16.11;43.35;100220.50;4363270;32;33349;-85
2022/05/01 03:48:19;;;;;;;7.43;3.58;;;;;;;16.38;42.22;100223.31;4349937;32;32360;-85
2022/05/01 03:50:51;;;;;;;3.65;3.15;;;;;;;16.21;42.43;100217.28;4331644;32;32572;-84
2022/05/01 03:53:19;;;;;;;4.72;3.00;;;;;;;16.35;42.31;100217.31;4355967;32;33847;-84
2022/05/01 03:55:48;;;;;;;3.83;3.33;;;;;;;16.36;42.92;100224.34;4344602;32;32450;-85
2022/05/01 03:58:20;;;;;;;5.90;3.78;;;;;;;16.22;42.77;100224.31;4362360;32;33308;-84
2022/05/01 04:00:49;;;;;;;4.32;3.28;;;;;;;16.33;42.48;100219.19;4362573;32;32692;-84
2022/05/01 04:03:18;;;;;;;5.35;2.97;;;;;;;16.52;42.23;100230.47;4362046;32;35708;-85
2022/05/01 04:05:47;;;;;;;6.32;3.75;;;;;;;16.23;42.84;100223.37;4361798;32;34684;-85
2022/05/01 04:08:14;;;;;;;5.07;3.35;;;;;;;16.33;42.97;100229.84;4367773;32;33490;-85
2022/05/01 04:10:46;;;;;;;5.50;3.60;;;;;;;16.22;43.11;100233.16;4330604;32;34257;-84
2022/05/01 04:13:15;;;;;;;5.25;3.70;;;;;;;16.35;43.61;100233.31;4343957;32;33114;-84
2022/05/01 04:15:48;;;;;;;8.65;4.22;;;;;;;16.37;43.25;100239.38;4357063;32;33689;-84
2022/05/01 04:18:22;;;;;;;4.70;3.53;;;;;;;16.31;43.95;100237.09;4375213;32;33811;-85
2022/05/01 04:20:52;;;;;;;5.93;3.60;;;;;;;16.39;43.09;100229.50;4356854;32;34307;-84
2022/05/01 04:23:20;;;;;;;8.85;4.18;;;;;;;16.36;43.22;100237.66;4334976;32;33746;-85
2022/05/01 04:25:49;;;;;;;5.55;3.92;;;;;;;16.23;43.44;100240.22;4341687;32;33780;-84
2022/05/01 04:28:18;;;;;;;7.95;3.97;;;;;;;16.25;43.57;100238.31;4342883;32;33132;-84
2022/05/01 04:30:46;;;;;;;7.43;3.70;;;;;;;16.35;43.39;100235.97;4345682;32;33722;-85
2022/05/01 04:33:15;;;;;;;6.65;3.65;;;;;;;16.45;43.34;100239.78;4352987;32;32643;-84
2022/05/01 04:35:48;;;;;;;5.75;3.60;;;;;;;16.39;43.64;100242.81;4340664;32;33493;-85
2022/05/01 04:38:19;;;;;;;4.97;4.18;;;;;;;16.50;43.96;100251.00;4331621;33;33232;-85
2022/05/01 04:40:53;;;;;;;5.35;4.00;;;;;;;16.52;43.59;100243.81;4335032;32;33659;-85
2022/05/01 04:43:26;;;;;;;6.30;4.00;;;;;;;16.48;43.52;100244.09;4342743;32;33987;-84
2022/05/01 04:45:58;;;;;;;4.10;3.65;;;;;;;16.47;43.96;100243.19;4339460;33;33589;-84
2022/05/01 04:48:27;;;;;;;5.62;3.97;;;;;;;16.59;43.54;100244.28;4353584;32;32731;-84
2022/05/01 04:50:55;;;;;;;5.97;4.40;;;;;;;16.76;42.99;100252.12;4336127;32;33607;-84
2022/05/01 04:53:23;;;;;;;5.25;3.95;;;;;;;16.74;43.06;100246.00;4351894;32;33453;-85
2022/05/01 04:55:54;;;;;;;5.57;4.18;;;;;;;16.70;43.26;100247.13;4339863;33;34164;-85
2022/05/01 04:58:24;;;;;;;4.75;4.25;;;;;;;16.89;42.75;100252.19;4337169;33;32305;-85
2022/05/01 05:00:53;;;;;;;8.30;3.92;;;;;;;17.03;42.45;100252.19;4339614;32;33980;-85
2022/05/01 05:03:22;;;;;;;6.72;4.00;;;;;;;16.87;43.31;100254.97;4342163;32;33619;-84
2022/05/01 05:05:53;;;;;;;5.60;3.83;;;;;;;16.44;44.22;100254.06;4340003;32;32604;-85
2022/05/01 05:11:13;;;;;;;5.90;4.47;;;;;;;16.95;42.44;100254.50;4349268;32;33751;-84
2022/05/01 05:13:43;;;;;;;5.97;3.80;;;;;;;17.11;43.17;100260.56;4337641;33;33375;-84
2022/05/01 05:16:15;;;;;;;4.57;3.55;;;;;;;16.84;43.54;100259.62;4334873;32;32840;-84
2022/05/01 05:18:43;;;;;;;12.40;4.78;;;;;;;17.01;42.97;100263.94;4336215;33;32380;-84
2022/05/01 05:21:11;;;;;;;5.20;4.03;;;;;;;16.88;44.00;100261.16;4341182;33;32993;-85
2022/05/01 05:23:39;;;;;;;5.57;4.12;;;;;;;16.59;44.98;100265.59;4337514;33;34187;-84
2022/05/01 05:26:15;;;;;;;6.75;5.12;;;;;;;16.79;44.42;100265.25;4357367;32;33829;-86
2022/05/01 05:28:53;;;;;;;5.82;4.20;;;;;;;16.99;43.98;100264.00;4348018;32;32361;-85
2022/05/01 05:31:23;;;;;;;6.43;3.62;;;;;;;16.95;43.74;100265.19;4335851;32;32670;-84
2022/05/01 05:33:58;;;;;;;6.37;4.68;;;;;;;17.17;42.88;100266.47;4348006;32;33421;-85
2022/05/01 05:36:28;;;;;;;5.00;4.03;;;;;;;16.81;42.94;100263.38;4360920;32;34598;-85
2022/05/01 05:38:57;;;;;;;7.70;4.45;;;;;;;17.08;43.24;100268.75;4348159;32;32626;-85
2022/05/01 05:41:24;;;;;;;6.53;4.28;;;;;;;17.11;43.05;100270.38;4348112;32;33120;-84
2022/05/01 05:43:53;;;;;;;7.43;3.95;;;;;;;17.13;44.58;100268.47;4365533;32;34286;-84
2022/05/01 05:46:28;;;;;;;6.55;4.03;;;;;;;17.46;43.18;100270.78;4360255;32;34090;-85
2022/05/01 05:49:03;;;;;;;5.43;4.35;;;;;;;17.11;44.94;100271.25;4347106;32;32971;-85
2022/05/01 05:51:36;;;;;;;5.07;3.95;;;;;;;17.17;42.74;100279.81;4360145;32;33862;-85
2022/05/01 05:54:06;;;;;;;6.45;4.68;;;;;;;17.18;43.13;100277.03;4348461;32;33774;-85
2022/05/01 05:56:47;;;;;;;5.03;4.10;;;;;;;16.93;43.19;100283.06;4367030;32;33623;-85
2022/05/01 05:59:21;;;;;;;7.35;5.18;;;;;;;16.64;43.60;100280.34;4359046;32;33412;-85
2022/05/01 06:01:51;;;;;;;7.07;4.87;;;;;;;16.59;44.53;100282.44;4348319;32;34014;-84
2022/05/01 06:04:22;;;;;;;8.60;4.85;;;;;;;16.73;45.59;100283.44;4348355;32;33803;-84
2022/05/01 06:06:53;;;;;;;11.05;4.90;;;;;;;17.14;43.36;100291.56;4359887;32;33796;-85
2022/05/01 06:11:59;;;;;;;6.10;3.80;;;;;;;17.24;42.85;100289.16;4362289;32;34493;-86
2022/05/01 06:14:35;;;;;;;6.45;4.07;;;;;;;17.27;42.48;100291.63;4349392;32;33274;-84
2022/05/01 06:17:04;;;;;;;5.45;4.37;;;;;;;17.43;43.30;100292.38;4355450;32;32988;-84
2022/05/01 06:19:34;;;;;;;5.00;3.85;;;;;;;17.47;42.44;100293.00;4337607;32;32601;-84
2022/05/01 06:22:09;;;;;;;9.02;4.30;;;;;;;17.59;42.74;100295.75;4364849;32;33645;-85
2022/05/01 06:24:43;;;;;;;9.02;3.87;;;;;;;17.59;42.73;100290.41;4349555;32;33857;-85
2022/05/01 06:27:25;;;;;;;5.15;4.60;;;;;;;17.61;42.61;100291.19;4355945;32;32757;-84
2022/05/01 06:29:59;;;;;;;6.12;4.55;;;;;;;17.90;41.36;100291.97;4350292;32;32956;-84
2022/05/01 06:32:30;;;;;;;5.05;4.32;;;;;;;17.81;42.52;100289.91;4366807;32;34419;-85
2022/05/01 06:34:58;;;;;;;5.65;4.80;;;;;;;17.89;41.69;100295.56;4354856;32;33782;-85
2022/05/01 06:37:35;;;;;;;7.10;4.22;;;;;;;17.63;41.97;100294.59;4366218;32;33600;-85
2022/05/01 06:40:09;;;;;;;7.50;4.05;;;;;;;17.76;42.19;100296.50;4357719;32;33352;-85
2022/05/01 06:42:37;;;;;;;8.27;4.20;;;;;;;17.97;41.67;100292.41;4355965;32;33331;-85
2022/05/01 06:45:19;;;;;;;6.30;3.85;;;;;;;17.62;45.07;100311.56;4349461;32;33553;-85
2022/05/01 06:47:54;;;;;;;7.57;4.78;;;;;;;18.06;41.64;100297.13;4345081;32;32753;-85
2022/05/01 06:50:36;;;;;;;6.65;3.72;;;;;;;18.20;41.26;100304.22;4350255;32;34274;-85
2022/05/01 06:53:07;;;;;;;5.40;3.92;;;;;;;18.15;41.75;100311.69;4347893;32;34165;-84
2022/05/01 06:55:44;;;;;;;8.93;5.55;;;;;;;18.16;42.85;100302.72;4350513;32;33400;-84
2022/05/01 06:58:19;;;;;;;8.32;4.62;;;;;;;18.51;40.45;100294.97;4337968;32;32395;-84
2022/05/01 07:00:54;;;;;;;5.75;4.45;;;;;;;18.28;40.74;100306.41;4338402;32;32744;-84
2022/05/01 07:03:23;;;;;;;8.38;4.68;;;;;;;17.92;43.75;100297.19;4361655;32;34613;-85
2022/05/01 07:05:54;;;;;;;5.03;3.97;;;;;;;18.12;42.21;100298.53;4368145;32;34969;-85
2022/05/01 07:08:31;;;;;;;9.55;4.43;;;;;;;17.98;43.06;100295.94;4361591;32;34289;-85
2022/05/01 07:11:12;;;;;;;6.45;4.40;;;;;;;17.94;43.55;100292.59;4342522;32;33653;-85
2022/05/01 07:13:50;;;;;;;4.80;3.62;;;;;;;18.07;43.18;100293.50;4360387;32;34502;-85
2022/05/01 07:16:23;;;;;;;7.07;4.25;;;;;;;18.14;43.18;100292.13;4367802;32;33886;-85
2022/05/01 07:18:51;;;;;;;7.43;4.25;;;;;;;17.81;44.60;100291.72;4336825;32;33338;-84
2022/05/01 07:21:24;;;;;;;10.45;4.72;;;;;;;18.67;42.68;100287.59;4337234;32;33280;-84
2022/05/01 07:23:53;;;;;;;5.85;4.60;;;;;;;18.86;42.84;100286.34;4370054;32;33619;-85
2022/05/01 07:26:33;;;;;;;4.70;3.40;;;;;;;18.93;41.40;100282.28;4354371;32;34335;-84
2022/05/01 07:29:03;;;;;;;6.15;3.72;;;;;;;18.61;42.08;100288.03;4347658;32;33284;-85
2022/05/01 07:31:35;;;;;;;3.85;3.17;;;;;;;19.51;41.40;100272.72;4368213;32;32370;-85
2022/05/01 07:34:16;;;;;;;4.47;3.50;;;;;;;19.62;42.84;100271.97;4350898;32;35670;-85
2022/05/01 07:36:46;;;;;;;;;;;;;;;19.76;41.62;100271.81;4369974;32;34512;-85
2022/05/01 07:39:20;;;;;;;4.07;3.30;;;;;;;19.84;40.62;100264.03;4326391;32;33863;-85
2022/05/01 07:41:50;;;;;;;7.20;3.62;;;;;;;20.30;40.75;100265.06;4337474;32;33415;-85
2022/05/01 07:44:21;;;;;;;6.68;3.60;;;;;;;20.32;40.14;100268.47;4349726;32;33768;-85
2022/05/01 07:46:51;;;;;;;3.83;3.20;;;;;;;20.60;38.02;100265.38;4355240;32;33298;-85
2022/05/01 07:49:22;;;;;;;5.60;3.58;;;;;;;20.56;39.23;100255.91;4358604;32;33222;-84
2022/05/01 07:51:53;;;;;;;4.15;3.28;;;;;;;20.79;38.29;100261.28;4349538;32;32703;-85
2022/05/01 07:54:26;;;;;;;4.53;2.90;;;;;;;20.46;39.52;100254.84;4350239;32;33187;-84
2022/05/01 07:56:55;;;;;;;3.12;2.83;;;;;;;20.42;39.84;100253.41;4349876;32;32967;-85
2022/05/01 07:59:26;;;;;;;4.12;2.65;;;;;;;20.69;40.04;100258.44;4361407;32;32236;-85
2022/05/01 08:02:12;;;;;;;2.87;2.20;;;;;;;21.08;39.95;100257.16;4349925;32;33776;-85
2022/05/01 08:04:40;;;;;;;2.83;2.47;;;;;;;21.31;38.13;100251.75;4366115;32;33841;-85
2022/05/01 08:07:22;;;;;;;2.85;2.05;;;;;;;21.70;36.32;100248.50;4360450;32;33622;-85
2022/05/01 08:09:51;;;;;;;2.55;2.35;;;;;;;21.76;37.61;100246.28;4349031;32;32734;-85
2022/05/01 08:12:20;;;;;;;2.20;1.92;;;;;;;21.33;38.78;100256.03;4366086;32;32546;-86
2022/05/01 08:14:49;;;;;;;2.92;2.33;;;;;;;21.78;37.13;100244.31;4361493;32;33511;-85
2022/05/01 08:17:22;;;;;;;1.98;1.83;;;;;;;22.02;36.93;100231.50;4348655;32;33941;-85
2022/05/01 08:22:49;;;;;;;2.33;1.80;;;;;;;22.09;36.27;100240.75;4359028;32;33482;-85
2022/05/01 08:25:23;;;;;;;3.03;1.70;;;;;;;22.32;35.31;100229.91;4351404;32;32569;-85
2022/05/01 08:27:52;;;;;;;3.50;2.10;;;;;;;22.02;35.44;100236.87;4365609;32;34575;-85
2022/05/01 08:30:25;;;;;;;2.75;1.40;;;;;;;21.93;35.05;100233.16;4332084;32;32635;-85
2022/05/01 08:32:59;;;;;;;1.62;1.45;;;;;;;22.12;36.18;100236.97;4351808;32;33390;-85
2022/05/01 08:35:34;;;;;;;2.20;1.67;;;;;;;22.34;35.67;100236.84;4356067;32;34055;-85
2022/05/01 08:38:08;;;;;;;4.57;1.80;;;;;;;22.56;33.93;100230.47;4355610;32;34034;-85
2022/05/01 08:40:36;;;;;;;1.92;1.73;;;;;;;23.01;33.90;100230.13;4359827;32;33683;-85
2022/05/01 08:43:05;;;;;;;3.05;2.47;;;;;;;23.35;32.64;100227.97;4365194;32;32836;-85
2022/05/01 08:45:45;;;;;;;4.57;2.40;;;;;;;22.72;34.50;100222.75;4348940;32;33828;-85
2022/05/01 08:48:24;;;;;;;3.00;2.00;;;;;;;22.74;36.50;100222.63;4360543;32;32866;-85
2022/05/01 08:50:55;;;;;;;2.12;1.92;;;;;;;22.56;35.67;100211.66;4361343;32;33816;-85
2022/05/01 08:53:24;;;;;;;2.17;1.25;;;;;;;23.15;33.34;100224.38;4344086;32;33739;-85
2022/05/01 08:55:55;;;;;;;1.70;1.25;;;;;;;22.93;31.24;100219.19;4352673;32;33126;-85
2022/05/01 08:58:26;;;;;;;1.12;0.95;;;;;;;23.10;30.31;100217.69;4341437;32;33851;-86
2022/05/01 09:00:58;;;;;;;2.72;1.00;;;;;;;22.53;31.27;100214.59;4353426;32;32894;-86
2022/05/01 09:03:36;;;;;;;2.62;1.20;;;;;;;23.10;33.10;100215.84;4358146;32;33309;-85
2022/05/01 09:06:06;;;;;;;2.45;1.30;;;;;;;23.02;32.14;100210.28;4359201;32;33699;-85
2022/05/01 09:08:40;;;;;;;2.45;1.30;;;;;;;22.96;32.23;100205.47;4366781;32;32588;-85
2022/05/01 09:14:06;;;;;;;3.33;1.40;;;;;;;23.25;31.20;100200.16;4348473;32;33771;-85
2022/05/01 09:16:39;;;;;;;1.73;1.42;;;;;;;23.29;30.86;100200.72;4339814;32;33952;-85
2022/05/01 09:19:10;;;;;;;1.58;1.45;;;;;;;24.03;30.96;100187.59;4354847;32;34428;-86
2022/05/01 09:24:32;;;;;;;2.30;1.62;;;;;;;23.48;31.66;100196.22;4338090;32;33390;-85
2022/05/01 09:27:05;;;;;;;2.28;1.62;;;;;;;24.01;30.69;100187.72;4355820;32;33157;-85
2022/05/01 09:29:34;;;;;;;2.45;1.50;;;;;;;23.91;30.25;100184.19;4353257;32;34639;-85
2022/05/01 09:32:05;;;;;;;3.12;2.10;;;;;;;23.06;31.94;100198.25;4360452;32;33107;-85
2022/05/01 09:34:42;;;;;;;1.98;1.58;;;;;;;23.22;31.41;100195.06;4354506;32;34880;-85
2022/05/01 09:40:00;;;;;;;2.45;1.50;;;;;;;23.75;29.42;100197.41;4365322;32;34744;-85
2022/05/01 09:47:50;;;;;;;6.50;2.20;;;;;;;24.06;31.81;100184.59;4365933;32;33099;-85
2022/05/01 09:50:38;;;;;;;2.80;1.55;;;;;;;24.34;29.71;100177.44;4376813;32;33936;-86
2022/05/01 09:53:11;;;;;;;3.85;2.25;;;;;;;23.27;29.70;100186.56;4352937;32;33283;-86
2022/05/01 09:55:58;;;;;;;4.35;1.50;;;;;;;23.26;34.74;100174.91;4366112;32;33153;-86
2022/05/01 09:58:33;;;;;;;3.15;2.00;;;;;;;23.50;30.01;100179.94;4359259;32;33813;-86
2022/05/01 10:01:08;;;;;;;2.45;2.10;;;;;;;23.35;30.61;100184.00;4370218;32;33587;-85
2022/05/01 10:03:47;;;;;;;2.85;2.30;;;;;;;22.79;31.66;100181.81;4360103;32;33378;-85
2022/05/01 10:06:29;;;;;;;3.00;1.62;;;;;;;23.34;30.02;100176.91;4361833;32;33953;-86
2022/05/01 10:09:07;;;;;;;2.72;2.05;;;;;;;24.20;27.86;100164.41;4350467;32;33271;-85
2022/05/01 10:11:37;;;;;;;3.12;1.95;;;;;;;23.96;29.66;100164.88;4346824;32;32966;-85
2022/05/01 10:14:06;;;;;;;2.35;1.95;;;;;;;23.19;30.79;100173.78;4342123;32;35171;-86
2022/05/01 10:16:34;;;;;;;3.33;2.55;;;;;;;23.35;31.03;100163.28;4355344;32;31928;-86
2022/05/01 10:19:05;;;;;;;2.78;1.83;;;;;;;23.52;30.27;100161.75;4350148;32;32895;-86
2022/05/01 10:21:59;;;;;;;4.30;2.15;;;;;;;23.91;29.08;100159.06;4361612;32;33297;-86
2022/05/01 10:24:33;;;;;;;3.55;2.30;;;;;;;24.09;27.33;100161.88;4372640;32;33249;-85
2022/05/01 10:27:14;;;;;;;2.60;1.77;;;;;;;24.61;27.23;100149.69;4357097;32;34006;-86
2022/05/01 10:33:11;;;;;;;2.10;1.90;;;;;;;23.49;29.68;100153.94;4338474;33;33359;-85
2022/05/01 10:35:51;;;;;;;2.40;2.20;;;;;;;23.57;27.70;100155.94;4333296;32;34515;-86
2022/05/01 10:38:54;;;;;;;3.33;1.90;;;;;;;23.90;26.71;100154.69;4350181;32;34175;-85
2022/05/01 10:41:24;;;;;;;4.18;2.40;;;;;;;23.94;29.06;100146.16;4349904;32;32776;-86
2022/05/01 10:43:57;;;;;;;2.42;2.03;;;;;;;23.58;29.67;100145.00;4355863;32;33491;-86
2022/05/01 10:46:32;;;;;;;6.43;2.12;;;;;;;23.86;27.97;100140.62;4340443;32;33698;-86
2022/05/01 10:49:05;;;;;;;2.90;2.17;;;;;;;24.15;28.07;100139.72;4342174;33;31807;-86
2022/05/01 10:51:48;;;;;;;4.90;2.08;;;;;;;24.18;27.27;100134.88;4353377;32;34670;-85
2022/05/01 10:54:16;;;;;;;2.35;2.15;;;;;;;24.11;27.54;100136.44;4353876;32;33469;-86
2022/05/01 10:56:46;;;;;;;2.15;1.95;;;;;;;23.86;28.74;100135.22;4335964;33;33926;-86
2022/05/01 10:59:47;;;;;;;2.58;2.10;;;;;;;24.23;29.10;100126.34;4347131;32;34130;-86
2022/05/01 11:02:22;;;;;;;7.18;2.53;;;;;;;23.76;31.64;100132.53;4348376;32;33411;-85
2022/05/01 11:05:00;;;;;;;2.67;2.40;;;;;;;23.74;28.22;100134.56;4328061;32;33241;-86
2022/05/01 11:07:35;;;;;;;3.40;2.67;;;;;;;23.80;28.92;100129.56;4354027;32;34162;-86
2022/05/01 11:10:09;;;;;;;2.70;2.15;;;;;;;23.00;29.90;100132.34;4354330;32;31867;-85
2022/05/01 11:12:40;;;;;;;3.60;2.20;;;;;;;23.43;29.63;100124.87;4325947;33;33878;-86
2022/05/01 11:15:26;;;;;;;2.95;2.33;;;;;;;23.33;29.44;100118.63;4334927;32;34794;-85
2022/05/01 11:18:04;;;;;;;2.83;2.15;;;;;;;23.22;28.89;100117.78;4352448;32;32625;-86
2022/05/01 11:20:34;;;;;;;2.80;2.40;;;;;;;23.13;30.33;100120.47;4339144;33;33344;-86
2022/05/01 11:23:30;;;;;;;3.45;2.20;;;;;;;23.54;30.32;100118.47;4355308;32;32941;-85
2022/05/01 11:26:08;;;;;;;3.67;2.20;;;;;;;23.91;27.18;100121.31;4353466;32;34691;-85
2022/05/01 11:28:46;;;;;;;8.48;2.10;;;;;;;23.97;27.27;100109.94;4329755;32;33729;-86
2022/05/01 11:31:45;;;;;;;4.62;2.65;;;;;;;23.75;28.53;100103.88;4355242;32;33023;-86
2022/05/01 11:34:21;;;;;;;3.55;2.40;;;;;;;23.99;26.82;100107.97;4372209;32;33629;-85
2022/05/01 11:37:05;;;;;;;3.95;2.17;;;;;;;24.34;24.45;100104.56;4354667;32;32803;-85
2022/05/01 11:39:45;;;;;;;2.62;2.20;;;;;;;23.87;25.66;100099.16;4341223;32;33878;-86
2022/05/01 11:42:38;;;;;;;2.45;2.25;;;;;;;23.46;26.48;100097.66;4356883;32;32026;-86
2022/05/01 11:45:11;;;;;;;5.07;2.72;;;;;;;23.33;26.44;100091.69;4352278;32;32605;-86
2022/05/01 11:47:40;;;;;;;2.97;2.67;;;;;;;23.24;26.66;100082.59;4366571;32;34462;-86
2022/05/01 11:50:21;;;;;;;2.58;2.17;;;;;;;22.87;26.61;100080.53;4349275;32;33034;-86
2022/05/01 11:52:53;;;;;;;3.90;2.62;;;;;;;22.52;28.29;100102.56;4357354;32;33640;-86
2022/05/01 12:02:24;;;;;;;4.45;2.15;;;;;;;22.06;28.67;100093.09;4340568;32;33909;-86
2022/05/01 12:04:34;;;;;;;2.53;2.25;;;;;;;22.54;29.79;100087.13;4345398;32;32518;-86
2022/05/01 12:07:20;;;;;;;3.20;2.30;;;;;;;23.00;29.94;100088.41;4354431;32;33882;-85
2022/05/01 12:15:18;;;;;;;3.10;2.47;;;;;;;23.85;28.20;100070.66;4367466;32;33479;-86
2022/05/01 12:20:35;;;;;;;3.33;2.53;;;;;;;24.19;29.58;100071.81;4357092;32;34464;-85
2022/05/01 12:23:07;;;;;;;4.93;2.40;;;;;;;24.17;29.18;100067.59;4367638;32;33169;-85
2022/05/01 12:28:12;;;;;;;2.40;2.20;;;;;;;24.55;26.30;100055.81;4347311;32;32839;-86
2022/05/01 12:30:42;;;;;;;2.65;2.20;;;;;;;24.60;29.00;100053.50;4350811;32;33977;-86
2022/05/01 12:33:24;;;;;;;3.03;2.37;;;;;;;24.81;26.53;100044.25;4338735;32;34655;-86
2022/05/01 12:35:59;;;;;;;3.67;2.58;;;;;;;24.60;27.69;100047.25;4356507;32;34170;-86
2022/05/01 12:38:34;;;;;;;2.35;2.05;;;;;;;24.99;27.87;100047.84;4331929;32;35647;-86
2022/05/01 12:47:01;;;;;;;3.33;1.98;;;;;;;24.44;27.13;100034.38;4352716;32;33294;-86
2022/05/01 12:49:32;;;;;;;3.12;2.15;;;;;;;24.23;27.31;100029.22;4352610;32;34206;-85
2022/05/01 12:52:06;;;;;;;3.92;2.42;;;;;;;24.12;27.63;100035.66;4340886;32;32830;-86